sensor_id;sensor_type;location;lat;lon;timestamp;temperature;humidity
3154;DHT22;1587;48.630;9.046;2024-01-15T00:00:17;-2.70;99.90
3154;DHT22;1587;48.630;9.046;2024-01-15T00:02:43;-2.70;99.90
3154;DHT22;1587;48.630;9.046;2024-01-15T00:05:09;-2.80;99.90
3154;DHT22;1587;48.630;9.046;2024-01-15T00:07:35;-2.70;99.90
3154;DHT22;1587;48.630;9.046;2024-01-15T00:10:00;-2.70;99.90
3154;DHT22;1587;48.630;9.046;2024-01-15T00:12:26;-2.70;99.90
3154;DHT22;1587;48.630;9.046;2024-01-15T00:14:52;-2.70;99.90
3154;DHT22;1587;48.630;9.046;2024-01-15T00:17:17;-2.70;99.90
3154;DHT22;1587;48.630;9.046;2024-01-15T00:19:43;-2.70;99.90
3154;DHT22;1587;48.630;9.046;2024-01-15T00:22:08;-2.70;99.90
3154;DHT22;1587;48.630;9.046;2024-01-15T00:25:37;-2.70;99.90
3154;DHT22;1587;48.630;9.046;2024-01-15T00:28:03;-2.60;99.90
3154;DHT22;1587;48.630;9.046;2024-01-15T00:30:28;-2.70;99.90
3154;DHT22;1587;48.630;9.046;2024-01-15T00:32:54;-2.70;99.90
3154;DHT22;1587;48.630;9.046;2024-01-15T00:35:19;-2.70;99.90
3154;DHT22;1587;48.630;9.046;2024-01-15T00:37:45;-2.70;99.90
3154;DHT22;1587;48.630;9.046;2024-01-15T00:40:10;-2.70;99.90
3154;DHT22;1587;48.630;9.046;2024-01-15T00:42:36;-3.00;99.90
3154;DHT22;1587;48.630;9.046;2024-01-15T00:45:01;-2.90;99.90
3154;DHT22;1587;48.630;9.046;2024-01-15T00:47:27;-3.00;99.90
3154;DHT22;1587;48.630;9.046;2024-01-15T00:49:52;-3.40;99.90
3154;DHT22;1587;48.630;9.046;2024-01-15T00:52:18;-3.20;99.90
3154;DHT22;1587;48.630;9.046;2024-01-15T00:54:43;-3.20;99.90
3154;DHT22;1587;48.630;9.046;2024-01-15T00:57:08;-3.30;99.90
3154;DHT22;1587;48.630;9.046;2024-01-15T00:59:34;-3.40;99.90
3154;DHT22;1587;48.630;9.046;2024-01-15T01:01:59;-3.40;99.90
3154;DHT22;1587;48.630;9.046;2024-01-15T01:04:25;-3.50;99.90
3154;DHT22;1587;48.630;9.046;2024-01-15T01:06:50;-3.50;99.90
3154;DHT22;1587;48.630;9.046;2024-01-15T01:09:16;-3.50;99.90
3154;DHT22;1587;48.630;9.046;2024-01-15T01:11:41;-3.40;99.90
3154;DHT22;1587;48.630;9.046;2024-01-15T01:14:07;-3.30;99.90
3154;DHT22;1587;48.630;9.046;2024-01-15T01:16:32;-3.20;99.90
3154;DHT22;1587;48.630;9.046;2024-01-15T01:19:04;-3.10;99.90
3154;DHT22;1587;48.630;9.046;2024-01-15T01:21:30;-3.00;99.90
3154;DHT22;1587;48.630;9.046;2024-01-15T01:23:55;-3.00;99.90
3154;DHT22;1587;48.630;9.046;2024-01-15T01:26:21;-2.90;99.90
3154;DHT22;1587;48.630;9.046;2024-01-15T01:28:46;-2.80;99.90
3154;DHT22;1587;48.630;9.046;2024-01-15T01:31:12;-2.80;99.90
3154;DHT22;1587;48.630;9.046;2024-01-15T01:33:38;-2.70;99.90
3154;DHT22;1587;48.630;9.046;2024-01-15T01:36:06;-2.70;99.90
3154;DHT22;1587;48.630;9.046;2024-01-15T01:38:32;-2.60;99.90
3154;DHT22;1587;48.630;9.046;2024-01-15T01:40:57;-2.60;99.90
3154;DHT22;1587;48.630;9.046;2024-01-15T01:43:23;-2.60;99.90
3154;DHT22;1587;48.630;9.046;2024-01-15T01:45:48;-2.60;99.90
3154;DHT22;1587;48.630;9.046;2024-01-15T01:48:14;-2.70;99.90
3154;DHT22;1587;48.630;9.046;2024-01-15T01:50:39;-2.50;99.90
3154;DHT22;1587;48.630;9.046;2024-01-15T01:53:05;-2.50;99.90
3154;DHT22;1587;48.630;9.046;2024-01-15T01:55:31;-2.80;99.90
3154;DHT22;1587;48.630;9.046;2024-01-15T01:57:58;-2.40;99.90
3154;DHT22;1587;48.630;9.046;2024-01-15T02:00:24;-2.40;99.90
3154;DHT22;1587;48.630;9.046;2024-01-15T02:02:50;-2.50;99.90
3154;DHT22;1587;48.630;9.046;2024-01-15T02:07:41;-2.60;99.90
3154;DHT22;1587;48.630;9.046;2024-01-15T02:10:07;-2.60;99.90
3154;DHT22;1587;48.630;9.046;2024-01-15T02:12:32;-2.60;99.90
3154;DHT22;1587;48.630;9.046;2024-01-15T02:14:58;-2.80;99.90
3154;DHT22;1587;48.630;9.046;2024-01-15T02:17:24;-2.70;99.90
3154;DHT22;1587;48.630;9.046;2024-01-15T02:19:49;-2.90;99.90
3154;DHT22;1587;48.630;9.046;2024-01-15T02:22:15;-2.80;99.90
3154;DHT22;1587;48.630;9.046;2024-01-15T02:24:40;-2.70;99.90
3154;DHT22;1587;48.630;9.046;2024-01-15T02:27:06;-2.80;99.90
3154;DHT22;1587;48.630;9.046;2024-01-15T02:29:31;-2.80;99.90
3154;DHT22;1587;48.630;9.046;2024-01-15T02:31:57;-2.90;99.90
3154;DHT22;1587;48.630;9.046;2024-01-15T02:34:22;-2.70;99.90
3154;DHT22;1587;48.630;9.046;2024-01-15T02:36:48;-2.80;99.90
3154;DHT22;1587;48.630;9.046;2024-01-15T02:39:13;-3.00;99.90
3154;DHT22;1587;48.630;9.046;2024-01-15T02:41:39;-3.10;99.90
3154;DHT22;1587;48.630;9.046;2024-01-15T02:44:04;-3.20;99.90
3154;DHT22;1587;48.630;9.046;2024-01-15T02:46:30;-3.30;99.90
3154;DHT22;1587;48.630;9.046;2024-01-15T02:48:55;-3.30;99.90
3154;DHT22;1587;48.630;9.046;2024-01-15T02:51:20;-3.40;99.90
3154;DHT22;1587;48.630;9.046;2024-01-15T02:53:46;-3.60;99.90
3154;DHT22;1587;48.630;9.046;2024-01-15T02:58:37;-3.50;99.90
3154;DHT22;1587;48.630;9.046;2024-01-15T03:01:03;-3.50;99.90
3154;DHT22;1587;48.630;9.046;2024-01-15T03:03:28;-3.30;99.90
3154;DHT22;1587;48.630;9.046;2024-01-15T03:05:54;-3.60;99.90
3154;DHT22;1587;48.630;9.046;2024-01-15T03:08:19;-3.70;99.90
3154;DHT22;1587;48.630;9.046;2024-01-15T03:10:45;-4.00;99.90
3154;DHT22;1587;48.630;9.046;2024-01-15T03:15:31;-3.80;99.90
3154;DHT22;1587;48.630;9.046;2024-01-15T03:17:57;-3.60;99.90
3154;DHT22;1587;48.630;9.046;2024-01-15T03:20:22;-3.70;99.90
3154;DHT22;1587;48.630;9.046;2024-01-15T03:22:48;-3.60;99.90
3154;DHT22;1587;48.630;9.046;2024-01-15T03:25:14;-3.50;99.90
3154;DHT22;1587;48.630;9.046;2024-01-15T03:27:39;-3.40;99.90
3154;DHT22;1587;48.630;9.046;2024-01-15T03:30:05;-3.40;99.90
3154;DHT22;1587;48.630;9.046;2024-01-15T03:32:30;-3.30;99.90
3154;DHT22;1587;48.630;9.046;2024-01-15T03:34:56;-3.30;99.90
3154;DHT22;1587;48.630;9.046;2024-01-15T03:37:21;-3.50;99.90
3154;DHT22;1587;48.630;9.046;2024-01-15T03:39:47;-3.60;99.90
3154;DHT22;1587;48.630;9.046;2024-01-15T03:42:12;-3.50;99.90
3154;DHT22;1587;48.630;9.046;2024-01-15T03:44:39;-3.20;99.90
3154;DHT22;1587;48.630;9.046;2024-01-15T03:47:05;-2.70;99.90
3154;DHT22;1587;48.630;9.046;2024-01-15T03:49:30;-2.50;99.90
3154;DHT22;1587;48.630;9.046;2024-01-15T03:51:56;-2.20;99.90
3154;DHT22;1587;48.630;9.046;2024-01-15T03:54:21;-2.20;99.90
3154;DHT22;1587;48.630;9.046;2024-01-15T03:56:47;-2.20;99.90
3154;DHT22;1587;48.630;9.046;2024-01-15T03:59:12;-2.20;99.90
3154;DHT22;1587;48.630;9.046;2024-01-15T04:01:37;-1.60;99.90
3154;DHT22;1587;48.630;9.046;2024-01-15T04:04:03;-2.20;99.90
3154;DHT22;1587;48.630;9.046;2024-01-15T04:06:28;-2.10;99.90
3154;DHT22;1587;48.630;9.046;2024-01-15T04:08:54;-2.20;99.90
3154;DHT22;1587;48.630;9.046;2024-01-15T04:11:19;-2.20;99.90
3154;DHT22;1587;48.630;9.046;2024-01-15T04:13:45;-2.10;99.90
3154;DHT22;1587;48.630;9.046;2024-01-15T04:16:10;-2.20;99.90
3154;DHT22;1587;48.630;9.046;2024-01-15T04:18:36;-2.10;99.90
3154;DHT22;1587;48.630;9.046;2024-01-15T04:21:03;-2.10;99.90
3154;DHT22;1587;48.630;9.046;2024-01-15T04:23:29;-2.10;99.90
3154;DHT22;1587;48.630;9.046;2024-01-15T04:25:54;-2.10;99.90
3154;DHT22;1587;48.630;9.046;2024-01-15T04:28:20;-2.10;99.90
3154;DHT22;1587;48.630;9.046;2024-01-15T04:30:45;-2.10;99.90
3154;DHT22;1587;48.630;9.046;2024-01-15T04:33:11;-2.10;99.90
3154;DHT22;1587;48.630;9.046;2024-01-15T04:35:36;-2.10;99.90
3154;DHT22;1587;48.630;9.046;2024-01-15T04:38:02;-2.20;99.90
3154;DHT22;1587;48.630;9.046;2024-01-15T04:40:28;-2.10;99.90
3154;DHT22;1587;48.630;9.046;2024-01-15T04:42:53;-2.10;99.90
3154;DHT22;1587;48.630;9.046;2024-01-15T04:45:19;-2.10;99.90
3154;DHT22;1587;48.630;9.046;2024-01-15T04:47:48;-2.10;99.90
3154;DHT22;1587;48.630;9.046;2024-01-15T04:50:13;-2.10;99.90
3154;DHT22;1587;48.630;9.046;2024-01-15T04:52:39;-2.10;99.90
3154;DHT22;1587;48.630;9.046;2024-01-15T04:55:04;-2.10;99.90
3154;DHT22;1587;48.630;9.046;2024-01-15T04:57:30;-2.10;99.90
3154;DHT22;1587;48.630;9.046;2024-01-15T04:59:55;-2.10;99.90
3154;DHT22;1587;48.630;9.046;2024-01-15T05:02:21;-2.10;99.90
3154;DHT22;1587;48.630;9.046;2024-01-15T05:04:46;-2.10;99.90
3154;DHT22;1587;48.630;9.046;2024-01-15T05:07:12;-2.10;99.90
3154;DHT22;1587;48.630;9.046;2024-01-15T05:09:37;-2.10;99.90
3154;DHT22;1587;48.630;9.046;2024-01-15T05:14:28;-2.00;99.90
3154;DHT22;1587;48.630;9.046;2024-01-15T05:16:54;-2.10;99.90
3154;DHT22;1587;48.630;9.046;2024-01-15T05:19:19;-2.00;99.90
3154;DHT22;1587;48.630;9.046;2024-01-15T05:21:45;-1.90;99.90
3154;DHT22;1587;48.630;9.046;2024-01-15T05:24:10;-2.00;99.90
3154;DHT22;1587;48.630;9.046;2024-01-15T05:26:36;-2.00;99.90
3154;DHT22;1587;48.630;9.046;2024-01-15T05:29:01;-2.00;99.90
3154;DHT22;1587;48.630;9.046;2024-01-15T05:31:27;-2.00;99.90
3154;DHT22;1587;48.630;9.046;2024-01-15T05:33:52;-2.00;99.90
3154;DHT22;1587;48.630;9.046;2024-01-15T05:36:18;-2.00;99.90
3154;DHT22;1587;48.630;9.046;2024-01-15T05:38:44;-1.90;99.90
3154;DHT22;1587;48.630;9.046;2024-01-15T05:41:09;-2.00;99.90
3154;DHT22;1587;48.630;9.046;2024-01-15T05:43:35;-2.00;99.90
3154;DHT22;1587;48.630;9.046;2024-01-15T05:46:00;-2.00;99.90
3154;DHT22;1587;48.630;9.046;2024-01-15T05:48:26;-2.10;99.90
3154;DHT22;1587;48.630;9.046;2024-01-15T05:50:51;-2.10;99.90
3154;DHT22;1587;48.630;9.046;2024-01-15T05:53:17;-2.10;99.90
3154;DHT22;1587;48.630;9.046;2024-01-15T05:55:42;-2.10;99.90
3154;DHT22;1587;48.630;9.046;2024-01-15T05:58:07;-2.00;99.90
3154;DHT22;1587;48.630;9.046;2024-01-15T06:00:33;-2.10;99.90
3154;DHT22;1587;48.630;9.046;2024-01-15T06:03:00;-2.20;99.90
3154;DHT22;1587;48.630;9.046;2024-01-15T06:05:26;-2.10;99.90
3154;DHT22;1587;48.630;9.046;2024-01-15T06:07:51;-2.10;99.90
3154;DHT22;1587;48.630;9.046;2024-01-15T06:10:17;-2.10;99.90
3154;DHT22;1587;48.630;9.046;2024-01-15T06:12:45;-2.10;99.90
3154;DHT22;1587;48.630;9.046;2024-01-15T06:15:11;-2.10;99.90
3154;DHT22;1587;48.630;9.046;2024-01-15T06:17:37;-2.00;99.90
3154;DHT22;1587;48.630;9.046;2024-01-15T06:20:03;-2.10;99.90
3154;DHT22;1587;48.630;9.046;2024-01-15T06:22:28;-2.00;99.90
3154;DHT22;1587;48.630;9.046;2024-01-15T06:24:54;-2.00;99.90
3154;DHT22;1587;48.630;9.046;2024-01-15T06:27:20;-2.00;99.90
3154;DHT22;1587;48.630;9.046;2024-01-15T06:29:46;-2.00;99.90
3154;DHT22;1587;48.630;9.046;2024-01-15T06:32:14;-2.00;99.90
3154;DHT22;1587;48.630;9.046;2024-01-15T06:34:40;-2.00;99.90
3154;DHT22;1587;48.630;9.046;2024-01-15T06:37:05;-2.10;99.90
3154;DHT22;1587;48.630;9.046;2024-01-15T06:39:31;-2.00;99.90
3154;DHT22;1587;48.630;9.046;2024-01-15T06:41:56;-1.90;99.90
3154;DHT22;1587;48.630;9.046;2024-01-15T06:44:22;-2.00;99.90
3154;DHT22;1587;48.630;9.046;2024-01-15T06:46:47;-1.90;99.90
3154;DHT22;1587;48.630;9.046;2024-01-15T06:49:13;-2.00;99.90
3154;DHT22;1587;48.630;9.046;2024-01-15T06:51:39;-2.00;99.90
3154;DHT22;1587;48.630;9.046;2024-01-15T06:54:04;-2.00;99.90
3154;DHT22;1587;48.630;9.046;2024-01-15T06:56:30;-2.00;99.90
3154;DHT22;1587;48.630;9.046;2024-01-15T06:58:56;-2.00;99.90
3154;DHT22;1587;48.630;9.046;2024-01-15T07:01:22;-1.90;99.90
3154;DHT22;1587;48.630;9.046;2024-01-15T07:03:47;-2.00;99.90
3154;DHT22;1587;48.630;9.046;2024-01-15T07:06:13;-1.90;99.90
3154;DHT22;1587;48.630;9.046;2024-01-15T07:08:39;-1.90;99.90
3154;DHT22;1587;48.630;9.046;2024-01-15T07:11:05;-2.00;99.90
3154;DHT22;1587;48.630;9.046;2024-01-15T07:13:31;-1.90;99.90
3154;DHT22;1587;48.630;9.046;2024-01-15T07:15:56;-1.90;99.90
3154;DHT22;1587;48.630;9.046;2024-01-15T07:18:22;-1.90;99.90
3154;DHT22;1587;48.630;9.046;2024-01-15T07:20:48;-1.90;99.90
3154;DHT22;1587;48.630;9.046;2024-01-15T07:23:14;-1.90;99.90
3154;DHT22;1587;48.630;9.046;2024-01-15T07:25:39;-1.90;99.90
3154;DHT22;1587;48.630;9.046;2024-01-15T07:28:05;-1.80;99.90
3154;DHT22;1587;48.630;9.046;2024-01-15T07:30:30;-1.80;99.90
3154;DHT22;1587;48.630;9.046;2024-01-15T07:35:22;-1.80;99.90
3154;DHT22;1587;48.630;9.046;2024-01-15T07:37:47;-1.70;99.90
3154;DHT22;1587;48.630;9.046;2024-01-15T07:40:12;-1.80;99.90
3154;DHT22;1587;48.630;9.046;2024-01-15T07:42:38;-1.80;99.90
3154;DHT22;1587;48.630;9.046;2024-01-15T07:45:04;-1.70;99.90
3154;DHT22;1587;48.630;9.046;2024-01-15T07:47:29;-1.60;99.90
3154;DHT22;1587;48.630;9.046;2024-01-15T07:49:55;-1.70;99.90
3154;DHT22;1587;48.630;9.046;2024-01-15T07:52:21;-1.70;99.90
3154;DHT22;1587;48.630;9.046;2024-01-15T07:54:46;-1.80;99.90
3154;DHT22;1587;48.630;9.046;2024-01-15T07:57:12;-1.10;99.90
3154;DHT22;1587;48.630;9.046;2024-01-15T07:59:38;-1.50;99.90
3154;DHT22;1587;48.630;9.046;2024-01-15T08:02:05;-1.50;99.90
3154;DHT22;1587;48.630;9.046;2024-01-15T08:04:31;-1.50;99.90
3154;DHT22;1587;48.630;9.046;2024-01-15T08:06:56;-1.40;99.90
3154;DHT22;1587;48.630;9.046;2024-01-15T08:09:22;-1.40;99.90
3154;DHT22;1587;48.630;9.046;2024-01-15T08:11:47;-1.40;99.90
3154;DHT22;1587;48.630;9.046;2024-01-15T08:14:14;-1.40;99.90
3154;DHT22;1587;48.630;9.046;2024-01-15T08:19:06;-1.40;99.90
3154;DHT22;1587;48.630;9.046;2024-01-15T08:21:31;-1.30;99.90
3154;DHT22;1587;48.630;9.046;2024-01-15T08:23:57;-1.50;99.90
3154;DHT22;1587;48.630;9.046;2024-01-15T08:26:23;-1.30;99.90
3154;DHT22;1587;48.630;9.046;2024-01-15T08:28:49;-1.20;99.90
3154;DHT22;1587;48.630;9.046;2024-01-15T08:31:14;-1.20;99.90
3154;DHT22;1587;48.630;9.046;2024-01-15T08:33:40;-0.90;99.90
3154;DHT22;1587;48.630;9.046;2024-01-15T08:36:05;-1.20;99.90
3154;DHT22;1587;48.630;9.046;2024-01-15T08:38:31;-1.10;99.90
3154;DHT22;1587;48.630;9.046;2024-01-15T08:40:56;-1.00;99.90
3154;DHT22;1587;48.630;9.046;2024-01-15T08:43:24;-1.00;99.90
3154;DHT22;1587;48.630;9.046;2024-01-15T08:45:49;-1.00;99.90
3154;DHT22;1587;48.630;9.046;2024-01-15T08:48:16;-1.00;99.90
3154;DHT22;1587;48.630;9.046;2024-01-15T08:50:42;-0.90;99.90
3154;DHT22;1587;48.630;9.046;2024-01-15T08:53:07;-0.90;99.90
3154;DHT22;1587;48.630;9.046;2024-01-15T08:55:32;-1.00;99.90
3154;DHT22;1587;48.630;9.046;2024-01-15T08:57:58;-1.00;99.90
3154;DHT22;1587;48.630;9.046;2024-01-15T09:00:23;-0.70;99.90
3154;DHT22;1587;48.630;9.046;2024-01-15T09:02:49;-0.60;99.90
3154;DHT22;1587;48.630;9.046;2024-01-15T09:05:14;-0.60;99.90
3154;DHT22;1587;48.630;9.046;2024-01-15T09:07:40;-0.50;99.90
3154;DHT22;1587;48.630;9.046;2024-01-15T09:10:06;-0.50;99.90
3154;DHT22;1587;48.630;9.046;2024-01-15T09:12:31;-0.50;99.90
3154;DHT22;1587;48.630;9.046;2024-01-15T09:14:57;-0.40;99.90
3154;DHT22;1587;48.630;9.046;2024-01-15T09:17:22;-0.40;99.90
3154;DHT22;1587;48.630;9.046;2024-01-15T09:19:53;-0.40;99.90
3154;DHT22;1587;48.630;9.046;2024-01-15T09:22:18;-0.30;99.90
3154;DHT22;1587;48.630;9.046;2024-01-15T09:27:17;-0.40;99.90
3154;DHT22;1587;48.630;9.046;2024-01-15T09:29:43;-0.40;99.90
3154;DHT22;1587;48.630;9.046;2024-01-15T09:32:11;-0.30;99.90
3154;DHT22;1587;48.630;9.046;2024-01-15T09:34:36;-0.20;99.90
3154;DHT22;1587;48.630;9.046;2024-01-15T09:37:02;-0.20;99.90
3154;DHT22;1587;48.630;9.046;2024-01-15T09:39:28;-0.10;99.90
3154;DHT22;1587;48.630;9.046;2024-01-15T09:41:54;0.00;99.90
3154;DHT22;1587;48.630;9.046;2024-01-15T09:44:19;0.00;99.90
3154;DHT22;1587;48.630;9.046;2024-01-15T09:46:46;0.00;99.90
3154;DHT22;1587;48.630;9.046;2024-01-15T09:49:11;0.00;99.90
3154;DHT22;1587;48.630;9.046;2024-01-15T09:51:37;0.10;99.90
3154;DHT22;1587;48.630;9.046;2024-01-15T09:54:04;0.10;99.90
3154;DHT22;1587;48.630;9.046;2024-01-15T09:56:30;0.40;99.90
3154;DHT22;1587;48.630;9.046;2024-01-15T09:58:55;0.20;99.90
3154;DHT22;1587;48.630;9.046;2024-01-15T10:01:22;0.10;99.90
3154;DHT22;1587;48.630;9.046;2024-01-15T10:03:48;0.20;99.90
3154;DHT22;1587;48.630;9.046;2024-01-15T10:06:15;0.20;99.90
3154;DHT22;1587;48.630;9.046;2024-01-15T10:08:42;0.20;99.90
3154;DHT22;1587;48.630;9.046;2024-01-15T10:11:09;0.20;99.90
3154;DHT22;1587;48.630;9.046;2024-01-15T10:13:34;0.10;99.90
3154;DHT22;1587;48.630;9.046;2024-01-15T10:16:00;0.00;99.90
3154;DHT22;1587;48.630;9.046;2024-01-15T10:18:28;0.00;99.90
3154;DHT22;1587;48.630;9.046;2024-01-15T10:20:53;0.10;99.90
3154;DHT22;1587;48.630;9.046;2024-01-15T10:23:19;0.10;99.90
3154;DHT22;1587;48.630;9.046;2024-01-15T10:25:45;0.10;99.90
3154;DHT22;1587;48.630;9.046;2024-01-15T10:28:10;0.10;99.90
3154;DHT22;1587;48.630;9.046;2024-01-15T10:30:35;0.00;99.90
3154;DHT22;1587;48.630;9.046;2024-01-15T10:33:02;0.10;99.90
3154;DHT22;1587;48.630;9.046;2024-01-15T10:35:31;0.20;99.90
3154;DHT22;1587;48.630;9.046;2024-01-15T10:37:58;0.30;99.90
3154;DHT22;1587;48.630;9.046;2024-01-15T10:40:23;0.30;99.90
3154;DHT22;1587;48.630;9.046;2024-01-15T10:42:49;0.30;99.90
3154;DHT22;1587;48.630;9.046;2024-01-15T10:45:14;0.20;99.90
3154;DHT22;1587;48.630;9.046;2024-01-15T10:47:43;0.40;99.90
3154;DHT22;1587;48.630;9.046;2024-01-15T10:50:09;0.40;99.90
3154;DHT22;1587;48.630;9.046;2024-01-15T10:52:35;0.40;99.90
3154;DHT22;1587;48.630;9.046;2024-01-15T10:55:00;0.40;99.90
3154;DHT22;1587;48.630;9.046;2024-01-15T10:57:27;0.40;99.90
3154;DHT22;1587;48.630;9.046;2024-01-15T10:59:53;0.40;99.90
3154;DHT22;1587;48.630;9.046;2024-01-15T11:02:19;0.30;99.90
3154;DHT22;1587;48.630;9.046;2024-01-15T11:04:44;0.30;99.90
3154;DHT22;1587;48.630;9.046;2024-01-15T11:07:10;0.20;99.90
3154;DHT22;1587;48.630;9.046;2024-01-15T11:09:36;0.20;99.90
3154;DHT22;1587;48.630;9.046;2024-01-15T11:12:12;0.20;99.90
3154;DHT22;1587;48.630;9.046;2024-01-15T11:14:48;0.30;99.90
3154;DHT22;1587;48.630;9.046;2024-01-15T11:17:14;0.20;99.90
3154;DHT22;1587;48.630;9.046;2024-01-15T11:22:08;0.20;99.90
3154;DHT22;1587;48.630;9.046;2024-01-15T11:24:35;0.20;99.90
3154;DHT22;1587;48.630;9.046;2024-01-15T11:27:01;0.20;99.90
3154;DHT22;1587;48.630;9.046;2024-01-15T11:34:21;0.20;99.90
3154;DHT22;1587;48.630;9.046;2024-01-15T11:41:56;0.20;99.90
3154;DHT22;1587;48.630;9.046;2024-01-15T11:44:22;0.20;99.90
3154;DHT22;1587;48.630;9.046;2024-01-15T11:46:57;0.20;99.90
3154;DHT22;1587;48.630;9.046;2024-01-15T11:50:05;0.10;99.90
3154;DHT22;1587;48.630;9.046;2024-01-15T11:52:11;0.20;99.90
3154;DHT22;1587;48.630;9.046;2024-01-15T11:54:40;-0.40;99.90
3154;DHT22;1587;48.630;9.046;2024-01-15T11:57:12;0.10;99.90
3154;DHT22;1587;48.630;9.046;2024-01-15T11:59:42;-0.20;99.90
3154;DHT22;1587;48.630;9.046;2024-01-15T12:02:08;-0.10;99.90
3154;DHT22;1587;48.630;9.046;2024-01-15T12:04:35;-0.20;99.90
3154;DHT22;1587;48.630;9.046;2024-01-15T12:07:01;-0.20;99.90
3154;DHT22;1587;48.630;9.046;2024-01-15T12:09:27;-0.10;99.90
3154;DHT22;1587;48.630;9.046;2024-01-15T12:11:54;-0.30;99.90
3154;DHT22;1587;48.630;9.046;2024-01-15T12:14:22;-0.30;99.90
3154;DHT22;1587;48.630;9.046;2024-01-15T12:16:47;-0.10;99.90
3154;DHT22;1587;48.630;9.046;2024-01-15T12:19:13;-0.30;99.90
3154;DHT22;1587;48.630;9.046;2024-01-15T12:21:39;-0.30;99.90
3154;DHT22;1587;48.630;9.046;2024-01-15T12:24:06;-0.40;99.90
3154;DHT22;1587;48.630;9.046;2024-01-15T12:26:32;-0.30;99.90
3154;DHT22;1587;48.630;9.046;2024-01-15T12:28:58;-0.30;99.90
3154;DHT22;1587;48.630;9.046;2024-01-15T12:31:26;-0.50;99.90
3154;DHT22;1587;48.630;9.046;2024-01-15T12:33:51;-0.40;99.90
3154;DHT22;1587;48.630;9.046;2024-01-15T12:36:20;-0.40;99.90
3154;DHT22;1587;48.630;9.046;2024-01-15T12:38:46;-0.60;99.90
3154;DHT22;1587;48.630;9.046;2024-01-15T12:41:11;-0.40;99.90
3154;DHT22;1587;48.630;9.046;2024-01-15T12:43:37;-0.20;99.90
3154;DHT22;1587;48.630;9.046;2024-01-15T12:46:02;-0.30;99.90
3154;DHT22;1587;48.630;9.046;2024-01-15T12:48:28;-0.20;99.90
3154;DHT22;1587;48.630;9.046;2024-01-15T12:50:55;-0.60;99.90
3154;DHT22;1587;48.630;9.046;2024-01-15T12:55:47;-0.50;99.90
3154;DHT22;1587;48.630;9.046;2024-01-15T12:58:13;-0.70;99.90
3154;DHT22;1587;48.630;9.046;2024-01-15T13:00:39;-0.40;99.90
3154;DHT22;1587;48.630;9.046;2024-01-15T13:03:05;-0.50;99.90
3154;DHT22;1587;48.630;9.046;2024-01-15T13:05:31;-0.60;99.90
3154;DHT22;1587;48.630;9.046;2024-01-15T13:07:56;-0.60;99.90
3154;DHT22;1587;48.630;9.046;2024-01-15T13:10:22;-0.50;99.90
3154;DHT22;1587;48.630;9.046;2024-01-15T13:12:47;-0.50;99.90
3154;DHT22;1587;48.630;9.046;2024-01-15T13:15:13;-0.60;99.90
3154;DHT22;1587;48.630;9.046;2024-01-15T13:17:38;-0.60;99.90
3154;DHT22;1587;48.630;9.046;2024-01-15T13:20:05;-0.50;99.90
3154;DHT22;1587;48.630;9.046;2024-01-15T13:22:31;-0.60;99.90
3154;DHT22;1587;48.630;9.046;2024-01-15T13:24:57;-0.60;99.90
3154;DHT22;1587;48.630;9.046;2024-01-15T13:27:23;-0.60;99.90
3154;DHT22;1587;48.630;9.046;2024-01-15T13:29:48;-0.60;99.90
3154;DHT22;1587;48.630;9.046;2024-01-15T13:32:14;-0.60;99.90
3154;DHT22;1587;48.630;9.046;2024-01-15T13:34:42;-0.70;99.90
3154;DHT22;1587;48.630;9.046;2024-01-15T13:37:08;-0.70;99.90
3154;DHT22;1587;48.630;9.046;2024-01-15T13:39:35;-0.70;99.90
3154;DHT22;1587;48.630;9.046;2024-01-15T13:42:02;-0.70;99.90
3154;DHT22;1587;48.630;9.046;2024-01-15T13:44:27;-0.60;99.90
3154;DHT22;1587;48.630;9.046;2024-01-15T13:46:53;-0.60;99.90
3154;DHT22;1587;48.630;9.046;2024-01-15T13:49:18;-0.70;99.90
3154;DHT22;1587;48.630;9.046;2024-01-15T13:51:44;-0.70;99.90
3154;DHT22;1587;48.630;9.046;2024-01-15T13:54:09;-0.70;99.90
3154;DHT22;1587;48.630;9.046;2024-01-15T13:56:35;-0.80;99.90
3154;DHT22;1587;48.630;9.046;2024-01-15T13:59:00;-0.70;99.90
3154;DHT22;1587;48.630;9.046;2024-01-15T14:01:26;-0.70;99.90
3154;DHT22;1587;48.630;9.046;2024-01-15T14:03:53;-0.70;99.90
3154;DHT22;1587;48.630;9.046;2024-01-15T14:06:18;-0.70;99.90
3154;DHT22;1587;48.630;9.046;2024-01-15T14:08:44;-0.70;99.90
3154;DHT22;1587;48.630;9.046;2024-01-15T14:11:09;-0.70;99.90
3154;DHT22;1587;48.630;9.046;2024-01-15T14:13:35;-0.80;99.90
3154;DHT22;1587;48.630;9.046;2024-01-15T14:16:01;-0.80;99.90
3154;DHT22;1587;48.630;9.046;2024-01-15T14:18:26;-0.80;99.90
3154;DHT22;1587;48.630;9.046;2024-01-15T14:20:52;-0.70;99.90
3154;DHT22;1587;48.630;9.046;2024-01-15T14:23:19;-0.80;99.90
3154;DHT22;1587;48.630;9.046;2024-01-15T14:25:44;-0.80;99.90
3154;DHT22;1587;48.630;9.046;2024-01-15T14:28:10;-0.70;99.90
3154;DHT22;1587;48.630;9.046;2024-01-15T14:30:35;-0.70;99.90
3154;DHT22;1587;48.630;9.046;2024-01-15T14:33:01;-0.70;99.90
3154;DHT22;1587;48.630;9.046;2024-01-15T14:35:26;-0.60;99.90
3154;DHT22;1587;48.630;9.046;2024-01-15T14:37:52;-0.80;99.90
3154;DHT22;1587;48.630;9.046;2024-01-15T14:40:17;-0.80;99.90
3154;DHT22;1587;48.630;9.046;2024-01-15T14:42:43;-0.80;99.90
3154;DHT22;1587;48.630;9.046;2024-01-15T14:45:09;-0.80;99.90
3154;DHT22;1587;48.630;9.046;2024-01-15T14:47:40;-0.80;99.90
3154;DHT22;1587;48.630;9.046;2024-01-15T14:50:06;-1.00;99.90
3154;DHT22;1587;48.630;9.046;2024-01-15T14:52:32;-1.00;99.90
3154;DHT22;1587;48.630;9.046;2024-01-15T14:54:59;-0.90;99.90
3154;DHT22;1587;48.630;9.046;2024-01-15T14:57:24;-0.90;99.90
3154;DHT22;1587;48.630;9.046;2024-01-15T14:59:50;-0.90;99.90
3154;DHT22;1587;48.630;9.046;2024-01-15T15:02:15;-0.90;99.90
3154;DHT22;1587;48.630;9.046;2024-01-15T15:04:41;-0.90;99.90
3154;DHT22;1587;48.630;9.046;2024-01-15T15:07:07;-1.00;99.90
3154;DHT22;1587;48.630;9.046;2024-01-15T15:09:32;-1.10;99.90
3154;DHT22;1587;48.630;9.046;2024-01-15T15:11:58;-1.20;99.90
3154;DHT22;1587;48.630;9.046;2024-01-15T15:14:23;-1.20;99.90
3154;DHT22;1587;48.630;9.046;2024-01-15T15:16:49;-1.10;99.90
3154;DHT22;1587;48.630;9.046;2024-01-15T15:19:14;-1.10;99.90
3154;DHT22;1587;48.630;9.046;2024-01-15T15:21:40;-0.50;99.90
3154;DHT22;1587;48.630;9.046;2024-01-15T15:24:05;-1.20;99.90
3154;DHT22;1587;48.630;9.046;2024-01-15T15:26:31;-1.10;99.90
3154;DHT22;1587;48.630;9.046;2024-01-15T15:28:56;-1.20;99.90
3154;DHT22;1587;48.630;9.046;2024-01-15T15:31:22;-1.30;99.90
3154;DHT22;1587;48.630;9.046;2024-01-15T15:33:47;-1.20;99.90
3154;DHT22;1587;48.630;9.046;2024-01-15T15:36:13;-1.30;99.90
3154;DHT22;1587;48.630;9.046;2024-01-15T15:38:38;-1.50;99.90
3154;DHT22;1587;48.630;9.046;2024-01-15T15:41:04;-1.30;99.90
3154;DHT22;1587;48.630;9.046;2024-01-15T15:43:29;-1.40;99.90
3154;DHT22;1587;48.630;9.046;2024-01-15T15:45:58;-1.40;99.90
3154;DHT22;1587;48.630;9.046;2024-01-15T15:48:23;-1.50;99.90
3154;DHT22;1587;48.630;9.046;2024-01-15T15:50:50;-1.50;99.90
3154;DHT22;1587;48.630;9.046;2024-01-15T15:53:15;-1.70;99.90
3154;DHT22;1587;48.630;9.046;2024-01-15T15:55:41;-2.00;99.90
3154;DHT22;1587;48.630;9.046;2024-01-15T15:58:06;-1.50;99.90
3154;DHT22;1587;48.630;9.046;2024-01-15T16:00:32;-1.60;99.90
3154;DHT22;1587;48.630;9.046;2024-01-15T16:02:57;-1.60;99.90
3154;DHT22;1587;48.630;9.046;2024-01-15T16:05:23;-1.80;99.90
3154;DHT22;1587;48.630;9.046;2024-01-15T16:07:48;-1.60;99.90
3154;DHT22;1587;48.630;9.046;2024-01-15T16:10:14;-1.50;99.90
3154;DHT22;1587;48.630;9.046;2024-01-15T16:12:40;-1.60;99.90
3154;DHT22;1587;48.630;9.046;2024-01-15T16:17:45;-1.60;99.90
3154;DHT22;1587;48.630;9.046;2024-01-15T16:20:10;-1.50;99.90
3154;DHT22;1587;48.630;9.046;2024-01-15T16:22:36;-1.50;99.90
3154;DHT22;1587;48.630;9.046;2024-01-15T16:25:04;-1.60;99.90
3154;DHT22;1587;48.630;9.046;2024-01-15T16:27:30;-1.60;99.90
3154;DHT22;1587;48.630;9.046;2024-01-15T16:29:55;-1.60;99.90